HOURLY OBS INDEX

022

Yorke Peninsula and Kangaroo Island

CAPE BORDA

Site: 022823
Alt: 158.0m
95km W of KINGSCOTE (KANGAROO ISLAND)


  Time     Wind        Temp  DP   Baro     Rain since   Rain past  Vis(m), Cloud(base in m), Weather
  local        km/h                         9am  last   hr   10m    
Mon 10:30    E 11/ 17  10.7  4.2  1031.5    0.0   0.0   0.0   0.0   ----- 
Mon 11:00    E 11/ 17  10.7  4.7  1031.5    0.0   0.0   0.0   0.0   ----- 
Mon 11:30  ESE  6/ 13  11.6  4.0  1031.0    0.0   0.0   0.0   0.0   ----- 
Mon 12:00  ENE 11/ 15  11.7  4.7  1030.7    0.0   0.0   0.0   0.0   ----- 
Mon 12:30    N 13/ 20  11.9  4.9  1030.2    0.0   0.0   0.0   0.0   ----- 
Mon 13:00    N 13/ 17  11.3  4.7  1029.9    0.0   0.0   0.0   0.0   ----- 
Mon 13:30  NNE 13/ 19  12.1  5.2  1029.6    0.0   0.0   0.0   0.0   ----- 
Mon 14:00  NNE 11/ 15  11.4  5.1  1029.3    0.0   0.0   0.0   0.0   ----- 
Mon 14:30    N  9/ 11  11.7  5.4  1029.4    0.0   0.0   0.0   0.0   ----- 
Mon 15:00  NNE 13/ 17  11.5  5.9  1029.1    0.0   0.0   0.0   0.0   ----- 
Mon 15:30  NNE  9/ 17  11.1  5.2  1028.9    0.0   0.0   0.0   0.0   ----- 

CAPE WILLOUGHBY

Site: 022803
Alt: 55.0m
49km ESE of KINGSCOTE (KANGAROO ISLAND)


  Time     Wind        Temp  DP   Baro     Rain since   Rain past  Vis(m), Cloud(base in m), Weather
  local        km/h                         9am  last   hr   10m    
Mon 10:30  SSE  9/ 15  11.2  7.3  1031.5    0.0   0.0   0.0   0.0   ----- 
Mon 11:00  SSW  9/ 17  10.9  8.8  1031.4    0.2   0.2   0.2   0.2   ----- 
Mon 11:30  SSE 11/ 17  11.5  8.2  1031.0    0.2   0.0   0.2   0.0   ----- 
Mon 12:00    S 11/ 17  11.4  7.9  1030.5    0.2   0.0   0.0   0.0   ----- 
Mon 12:30    S 13/ 17  11.9  7.8  1030.0    0.2   0.0   0.0   0.0   ----- 
Mon 13:00    S 11/ 15  12.0  8.1  1029.8    0.2   0.0   0.0   0.0   ----- 
Mon 13:30  SSW  9/ 15  11.9  9.1  1029.6    0.2   0.0   0.0   0.0   ----- 
Mon 14:00    S  7/ 13  11.6  8.3  1029.4    0.2   0.0   0.0   0.0   ----- 
Mon 14:30    S  7/ 15  11.9  8.6  1028.9    0.2   0.0   0.0   0.0   ----- 
Mon 15:00    S  6/ 13  12.1  8.4  1029.0    0.2   0.0   0.0   0.0   ----- 
Mon 15:30   SE 11/ 15  10.9  8.5  1029.1    0.2   0.0   0.0   0.0   ----- 

EDITHBURGH

Site: 022046
Alt: 6.0m
61km N of KINGSCOTE (KANGAROO ISLAND)


  Time     Wind        Temp  DP   Baro     Rain since   Rain past  Vis(m), Cloud(base in m), Weather
  local        km/h                         9am  last   hr   10m    
Mon 10:30  SSE 13/ 17  11.1  7.1  1031.8    0.0   0.0   0.0   0.0   ----- 
Mon 11:00  SSE  7/ 13  12.9  6.6  1031.4    0.0   0.0   0.0   0.0   ----- 
Mon 11:30  SSW  7/ 13  13.0  5.7  1031.1    0.0   0.0   0.0   0.0   ----- 
Mon 12:00    S  7/ 13  12.9  5.8  1030.8    0.0   0.0   0.0   0.0   ----- 
Mon 12:30  SSE 13/ 19  12.6  6.9  1030.3    0.0   0.0   0.0   0.0   ----- 
Mon 13:00    S 11/ 15  12.9  6.8  1030.1    0.0   0.0   0.0   0.0   ----- 
Mon 13:30  SSE 13/ 17  12.4  6.2  1029.7    0.0   0.0   0.0   0.0   ----- 
Mon 14:00  SSE  9/ 15  12.8  6.0  1029.4    0.0   0.0   0.0   0.0   ----- 
Mon 14:30   SE  9/ 13  12.6  6.0  1029.2    0.0   0.0   0.0   0.0   ----- 
Mon 15:00   SE  7/ 11  12.4  5.7  1029.2    0.0   0.0   0.0   0.0   ----- 
Mon 15:30    S  6/  9  11.9  6.1  1029.1    0.0   0.0   0.0   0.0   ----- 

KADINA AWS

Site: 022050
Alt: 41.1m
45km N of MAITLAND (YORKE PENINSULA)


  Time     Wind        Temp  DP   Baro     Rain since   Rain past  Vis(m), Cloud(base in m), Weather
  local        km/h                         9am  last   hr   10m    
Mon 10:30    S 11/ 15  11.9  6.4  1031.8    0.0   0.0   0.0   0.0   ----- 
Mon 11:00    S  9/ 13  11.9  6.6  1031.5    0.0   0.0   0.0   0.0   ----- 
Mon 11:30   SE  7/  9  12.0  6.3  1031.2    0.0   0.0   0.0   0.0   ----- 
Mon 12:00   SE  4/ 11  12.3  6.1  1030.8    0.0   0.0   0.0   0.0   ----- 
Mon 12:30    E  9/ 15  11.9  6.4  1030.4    0.0   0.0   0.0   0.0   ----- 
Mon 13:00    E  9/ 13  12.2  6.5  1030.1    0.0   0.0   0.0   0.0   ----- 
Mon 13:30    E  7/ 11  12.1  6.4  1029.7    0.0   0.0   0.0   0.0   ----- 
Mon 14:00  ENE  9/ 13  12.2  6.7  1029.4    0.0   0.0   0.0   0.0   ----- 
Mon 14:30    C  0/  0  12.3  6.8  1029.5    0.0   0.0   0.0   0.0   ----- 
Mon 15:00  SSW  9/ 11  11.8  7.7  1029.2    0.0   0.0   0.0   0.0   ----- 
Mon 15:30  WSW  9/ 11  11.7  6.4  1028.9    0.0   0.0   0.0   0.0   ----- 

KINGSCOTE AERO

Site: 022841
Alt: 6.2m
12km WSW of KINGSCOTE (KANGAROO ISLAND)


  Time     Wind        Temp  DP   Baro     Rain since   Rain past  Vis(m), Cloud(base in m), Weather
  local        km/h                         9am  last   hr   10m    
Mon 10:30   SW  7/ 11  11.7  5.8  1031.9    0.0   0.0   0.0   0.0   10000|OC1020 
Mon 11:00   SW  7/  9  12.0  5.9  1031.6    0.0   0.0   0.0   0.0   10000|OC1020 
Mon 11:30    S  2/ 11  13.0  6.4  1031.2    0.0   0.0   0.0   0.0   10000|OC1020 
Mon 12:00    S 11/ 17  12.5  5.0  1030.7    0.0   0.0   0.0   0.0   10000|OC1020 
Mon 12:30  ESE  9/ 15  13.0  5.4  1030.3    0.0   0.0   0.0   0.0   10000|BR1020 
Mon 13:00  NNE  7/ 13  13.6  5.0  1030.0    0.0   0.0   0.0   0.0   10000|BR1020 
Mon 13:30  ENE 11/ 15  13.4  5.6  1029.6    0.0   0.0   0.0   0.0   10000|BR1020 
Mon 14:00  SSE 13/ 19  12.8  5.7  1029.3    0.0   0.0   0.0   0.0   10000|OC1020 
Mon 14:30  ESE  9/ 20  13.6  6.5  1029.1    0.0   0.0   0.0   0.0   10000|BR 960 
Mon 15:00    E  9/ 11  12.6  6.9  1029.2    0.0   0.0   0.0   0.0   10000|BR1020 
Mon 15:30   NE  7/  9  12.4  6.7  1028.9    0.0   0.0   0.0   0.0   10000 

MINLATON AERO

Site: 022031
Alt: 32.0m
44km SSW of MAITLAND (YORKE PENINSULA)


  Time     Wind        Temp  DP   Baro     Rain since   Rain past  Vis(m), Cloud(base in m), Weather
  local        km/h                         9am  last   hr   10m    
Mon 10:30  SSW 11/ 17  11.9  7.2  1031.6    0.0   0.0   0.0   0.0   ----- 
Mon 11:00    S  9/ 15  12.6  7.3  1031.5    0.0   0.0   0.0   0.0   ----- 
Mon 11:30    S  9/ 15  12.7  6.1  1031.1    0.0   0.0   0.0   0.0   ----- 
Mon 12:00    S 11/ 20  13.0  6.6  1030.8    0.0   0.0   0.0   0.0   ----- 
Mon 12:30  WSW 13/ 20  12.9  6.7  1030.2    0.0   0.0   0.0   0.0   ----- 
Mon 13:00   SW  9/ 15  13.0  6.1  1029.8    0.0   0.0   0.0   0.0   ----- 
Mon 13:30   SW 15/ 20  12.8  6.8  1029.5    0.0   0.0   0.0   0.0   ----- 
Mon 14:00  WSW 15/ 17  12.8  6.2  1029.3    0.0   0.0   0.0   0.0   ----- 
Mon 14:30    W 13/ 19  12.5  6.8  1029.3    0.0   0.0   0.0   0.0   ----- 
Mon 15:00    W 15/ 17  12.2  6.5  1029.1    0.0   0.0   0.0   0.0   ----- 
Mon 15:30    W 13/ 15  12.0  5.9  1028.7    0.0   0.0   0.0   0.0   ----- 

MOONTA (WARBURTO POINT)

Site: 022053
Alt: 1.0m
43km NNW of MAITLAND (YORKE PENINSULA)


  Time     Wind        Temp  DP   Baro     Rain since   Rain past  Vis(m), Cloud(base in m), Weather
  local        km/h                         9am  last   hr   10m    
Mon 10:30  SSE 11/ 13 --------  ------   ----  ----  ----  ----   ----- 
Mon 11:00  SSE  9/ 13 --------  ------   ----  ----  ----  ----   ----- 
Mon 11:30   SW  9/ 13 --------  ------   ----  ----  ----  ----   ----- 
Mon 12:00   SW  9/ 11 --------  ------   ----  ----  ----  ----   ----- 
Mon 12:30   SW  6/  7 --------  ------   ----  ----  ----  ----   ----- 
Mon 13:00    W  7/ 11 --------  ------   ----  ----  ----  ----   ----- 
Mon 13:30   SW  9/ 11 --------  ------   ----  ----  ----  ----   ----- 
Mon 14:00   SW  9/ 11 --------  ------   ----  ----  ----  ----   ----- 
Mon 14:30    W  9/ 11 --------  ------   ----  ----  ----  ----   ----- 
Mon 15:00    W  7/  9 --------  ------   ----  ----  ----  ----   ----- 
Mon 15:30    W  4/  7 --------  ------   ----  ----  ----  ----   ----- 

PARNDANA CFS AWS

Site: 022843
Alt: 165.0m
38km WSW of KINGSCOTE (KANGAROO ISLAND)


  Time     Wind        Temp  DP   Baro     Rain since   Rain past  Vis(m), Cloud(base in m), Weather
  local        km/h                         9am  last   hr   10m    
Mon 10:30    W  4/  6   9.9  6.6  ------    0.0   0.0   0.0   0.0   ----- 
Mon 11:00    E  6/ 11  10.7  5.9  ------    0.0   0.0   0.0   0.0   ----- 
Mon 11:30  ESE  9/ 17  10.5  4.4  ------    0.0   0.0   0.0   0.0   ----- 
Mon 12:00   SE  6/ 17  10.8  4.7  ------    0.0   0.0   0.0   0.0   ----- 
Mon 12:30    E  4/  7  12.0  5.4  ------    0.0   0.0   0.0   0.0   ----- 
Mon 13:00   SE  7/ 13  12.0  5.6  ------    0.0   0.0   0.0   0.0   ----- 
Mon 13:30    E  9/ 13  11.7  5.6  ------    0.0   0.0   0.0   0.0   ----- 
Mon 14:00    E  9/ 17  11.6  5.5  ------    0.0   0.0   0.0   0.0   ----- 
Mon 14:30  SSE  4/  7  11.7  5.3  ------    0.0   0.0   0.0   0.0   ----- 
Mon 15:00  ENE  6/  7  11.9  5.8  ------    0.0   0.0   0.0   0.0   ----- 
Mon 15:30  NNE  7/  9  11.5  4.9  ------    0.0   0.0   0.0   0.0   ----- 

STENHOUSE BAY

Site: 022049
Alt: 42.0m
76km WNW of KINGSCOTE (KANGAROO ISLAND)


  Time     Wind        Temp  DP   Baro     Rain since   Rain past  Vis(m), Cloud(base in m), Weather
  local        km/h                         9am  last   hr   10m    
Mon 10:30  ESE 11/ 15  11.8  4.8  1031.6    0.0   0.0   0.0   0.0   ----- 
Mon 11:00   SE  7/ 11  11.9  4.4  1031.4    0.0   0.0   0.0   0.0   ----- 
Mon 11:30    E 11/ 17  11.9  5.3  1031.1    0.0   0.0   0.0   0.0   ----- 
Mon 12:00  ESE  9/ 11  12.0  5.6  1030.8    0.0   0.0   0.0   0.0   ----- 
Mon 12:30  ESE  7/  9  11.9  5.1  1030.4    0.0   0.0   0.0   0.0   ----- 
Mon 13:00  ESE  7/ 11  12.2  5.4  1029.8    0.0   0.0   0.0   0.0   ----- 
Mon 13:30    E  7/ 13  12.5  5.4  1029.5    0.0   0.0   0.0   0.0   ----- 
Mon 14:00    E  9/ 11  12.5  5.4  1029.4    0.0   0.0   0.0   0.0   ----- 
Mon 14:30    E  6/  9  12.1  4.8  1029.3    0.0   0.0   0.0   0.0   ----- 
Mon 15:00    E  6/ 11  12.2  5.1  1029.0    0.0   0.0   0.0   0.0   ----- 
Mon 15:30   NE  2/  6  12.2  4.9  1028.7    0.0   0.0   0.0   0.0   -----